sensor_id;sensor_type;location;lat;lon;timestamp;P1;durP1;ratioP1;P2;durP2;ratioP2
62574;SDS011;76945;45.630;11.704;2024-03-17T00:01:06;64.70;;;45.13;;
62574;SDS011;76945;45.630;11.704;2024-03-17T00:03:31;69.50;;;44.97;;
62574;SDS011;76945;45.630;11.704;2024-03-17T00:06:00;60.45;;;42.95;;
62574;SDS011;76945;45.630;11.704;2024-03-17T00:08:26;58.45;;;40.78;;
62574;SDS011;76945;45.630;11.704;2024-03-17T00:10:52;62.70;;;43.47;;
62574;SDS011;76945;45.630;11.704;2024-03-17T00:13:19;71.85;;;47.80;;
62574;SDS011;76945;45.630;11.704;2024-03-17T00:15:46;61.58;;;43.20;;
62574;SDS011;76945;45.630;11.704;2024-03-17T00:18:12;59.95;;;40.90;;
62574;SDS011;76945;45.630;11.704;2024-03-17T00:20:38;65.25;;;44.53;;
62574;SDS011;76945;45.630;11.704;2024-03-17T00:23:04;67.00;;;45.47;;
62574;SDS011;76945;45.630;11.704;2024-03-17T00:25:31;62.72;;;42.53;;
62574;SDS011;76945;45.630;11.704;2024-03-17T00:27:59;67.68;;;45.05;;
62574;SDS011;76945;45.630;11.704;2024-03-17T00:30:25;63.45;;;44.60;;
62574;SDS011;76945;45.630;11.704;2024-03-17T00:32:51;60.50;;;41.55;;
62574;SDS011;76945;45.630;11.704;2024-03-17T00:35:17;67.97;;;48.25;;
62574;SDS011;76945;45.630;11.704;2024-03-17T00:37:48;65.95;;;45.22;;
62574;SDS011;76945;45.630;11.704;2024-03-17T00:40:17;64.75;;;45.00;;
62574;SDS011;76945;45.630;11.704;2024-03-17T00:42:43;67.53;;;46.67;;
62574;SDS011;76945;45.630;11.704;2024-03-17T00:45:12;62.17;;;42.42;;
62574;SDS011;76945;45.630;11.704;2024-03-17T00:47:38;50.20;;;34.92;;
62574;SDS011;76945;45.630;11.704;2024-03-17T00:50:04;57.60;;;40.08;;
62574;SDS011;76945;45.630;11.704;2024-03-17T00:52:31;61.08;;;41.65;;
62574;SDS011;76945;45.630;11.704;2024-03-17T00:54:57;73.50;;;50.80;;
62574;SDS011;76945;45.630;11.704;2024-03-17T00:57:23;78.03;;;50.38;;
62574;SDS011;76945;45.630;11.704;2024-03-17T00:59:49;81.40;;;51.92;;
62574;SDS011;76945;45.630;11.704;2024-03-17T01:02:15;80.20;;;49.70;;
62574;SDS011;76945;45.630;11.704;2024-03-17T01:04:41;80.55;;;53.05;;
62574;SDS011;76945;45.630;11.704;2024-03-17T01:07:10;81.57;;;52.65;;
62574;SDS011;76945;45.630;11.704;2024-03-17T01:09:37;102.28;;;62.97;;
62574;SDS011;76945;45.630;11.704;2024-03-17T01:12:03;90.97;;;57.83;;
62574;SDS011;76945;45.630;11.704;2024-03-17T01:14:29;81.47;;;51.92;;
62574;SDS011;76945;45.630;11.704;2024-03-17T01:16:55;90.65;;;56.25;;
62574;SDS011;76945;45.630;11.704;2024-03-17T01:19:22;97.75;;;61.30;;
62574;SDS011;76945;45.630;11.704;2024-03-17T01:21:48;88.78;;;57.25;;
62574;SDS011;76945;45.630;11.704;2024-03-17T01:24:14;91.78;;;58.97;;
62574;SDS011;76945;45.630;11.704;2024-03-17T01:26:39;92.43;;;56.63;;
62574;SDS011;76945;45.630;11.704;2024-03-17T01:29:05;100.25;;;62.30;;
62574;SDS011;76945;45.630;11.704;2024-03-17T01:31:31;75.35;;;50.60;;
62574;SDS011;76945;45.630;11.704;2024-03-17T01:33:56;91.47;;;56.42;;
62574;SDS011;76945;45.630;11.704;2024-03-17T01:36:22;80.30;;;50.78;;
62574;SDS011;76945;45.630;11.704;2024-03-17T01:38:47;75.18;;;48.88;;
62574;SDS011;76945;45.630;11.704;2024-03-17T01:41:15;72.53;;;46.67;;
62574;SDS011;76945;45.630;11.704;2024-03-17T01:43:41;73.82;;;49.25;;
62574;SDS011;76945;45.630;11.704;2024-03-17T01:46:09;89.10;;;56.90;;
62574;SDS011;76945;45.630;11.704;2024-03-17T01:51:04;81.80;;;50.03;;
62574;SDS011;76945;45.630;11.704;2024-03-17T01:53:30;79.07;;;48.10;;
62574;SDS011;76945;45.630;11.704;2024-03-17T01:55:56;78.07;;;47.97;;
62574;SDS011;76945;45.630;11.704;2024-03-17T01:58:26;94.30;;;58.03;;
62574;SDS011;76945;45.630;11.704;2024-03-17T02:00:54;71.78;;;48.35;;
62574;SDS011;76945;45.630;11.704;2024-03-17T02:03:19;84.05;;;52.60;;
62574;SDS011;76945;45.630;11.704;2024-03-17T02:05:45;73.07;;;47.85;;
62574;SDS011;76945;45.630;11.704;2024-03-17T02:08:11;75.57;;;49.50;;
62574;SDS011;76945;45.630;11.704;2024-03-17T02:10:37;74.93;;;48.78;;
62574;SDS011;76945;45.630;11.704;2024-03-17T02:13:02;75.88;;;48.72;;
62574;SDS011;76945;45.630;11.704;2024-03-17T02:15:29;86.85;;;53.53;;
62574;SDS011;76945;45.630;11.704;2024-03-17T02:17:55;95.22;;;56.65;;
62574;SDS011;76945;45.630;11.704;2024-03-17T02:20:21;82.60;;;51.70;;
62574;SDS011;76945;45.630;11.704;2024-03-17T02:23:09;90.88;;;55.45;;
62574;SDS011;76945;45.630;11.704;2024-03-17T02:25:35;73.45;;;46.58;;
62574;SDS011;76945;45.630;11.704;2024-03-17T02:28:01;82.75;;;52.42;;
62574;SDS011;76945;45.630;11.704;2024-03-17T02:30:27;78.45;;;50.30;;
62574;SDS011;76945;45.630;11.704;2024-03-17T02:32:53;80.55;;;49.40;;
62574;SDS011;76945;45.630;11.704;2024-03-17T02:35:20;78.40;;;50.15;;
62574;SDS011;76945;45.630;11.704;2024-03-17T02:37:49;84.72;;;51.78;;
62574;SDS011;76945;45.630;11.704;2024-03-17T02:40:14;64.85;;;43.15;;
62574;SDS011;76945;45.630;11.704;2024-03-17T02:42:41;76.97;;;50.40;;
62574;SDS011;76945;45.630;11.704;2024-03-17T02:45:10;81.25;;;50.35;;
62574;SDS011;76945;45.630;11.704;2024-03-17T02:47:38;79.20;;;49.55;;
62574;SDS011;76945;45.630;11.704;2024-03-17T02:50:05;74.57;;;48.00;;
62574;SDS011;76945;45.630;11.704;2024-03-17T02:52:31;79.82;;;51.28;;
62574;SDS011;76945;45.630;11.704;2024-03-17T02:54:57;74.93;;;46.45;;
62574;SDS011;76945;45.630;11.704;2024-03-17T02:57:22;73.22;;;45.33;;
62574;SDS011;76945;45.630;11.704;2024-03-17T02:59:50;76.00;;;48.72;;
62574;SDS011;76945;45.630;11.704;2024-03-17T03:02:16;78.15;;;48.45;;
62574;SDS011;76945;45.630;11.704;2024-03-17T03:04:42;69.03;;;45.63;;
62574;SDS011;76945;45.630;11.704;2024-03-17T03:07:08;64.97;;;43.03;;
62574;SDS011;76945;45.630;11.704;2024-03-17T03:09:33;70.15;;;46.22;;
62574;SDS011;76945;45.630;11.704;2024-03-17T03:11:59;66.07;;;42.25;;
62574;SDS011;76945;45.630;11.704;2024-03-17T03:14:27;73.03;;;46.45;;
62574;SDS011;76945;45.630;11.704;2024-03-17T03:16:53;79.50;;;49.03;;
62574;SDS011;76945;45.630;11.704;2024-03-17T03:19:19;69.50;;;44.20;;
62574;SDS011;76945;45.630;11.704;2024-03-17T03:21:45;75.35;;;47.25;;
62574;SDS011;76945;45.630;11.704;2024-03-17T03:24:11;69.43;;;43.75;;
62574;SDS011;76945;45.630;11.704;2024-03-17T03:26:38;75.18;;;46.60;;
62574;SDS011;76945;45.630;11.704;2024-03-17T03:29:04;75.65;;;47.83;;
62574;SDS011;76945;45.630;11.704;2024-03-17T03:31:31;74.10;;;47.08;;
62574;SDS011;76945;45.630;11.704;2024-03-17T03:33:57;71.75;;;45.92;;
62574;SDS011;76945;45.630;11.704;2024-03-17T03:36:26;67.60;;;43.80;;
62574;SDS011;76945;45.630;11.704;2024-03-17T03:38:52;70.22;;;46.33;;
62574;SDS011;76945;45.630;11.704;2024-03-17T03:41:18;68.65;;;45.20;;
62574;SDS011;76945;45.630;11.704;2024-03-17T03:43:44;68.30;;;43.95;;
62574;SDS011;76945;45.630;11.704;2024-03-17T03:46:13;60.03;;;40.75;;
62574;SDS011;76945;45.630;11.704;2024-03-17T03:48:38;68.50;;;41.95;;
62574;SDS011;76945;45.630;11.704;2024-03-17T03:51:05;64.22;;;42.22;;
62574;SDS011;76945;45.630;11.704;2024-03-17T03:53:31;66.03;;;43.33;;
62574;SDS011;76945;45.630;11.704;2024-03-17T03:55:57;70.38;;;43.17;;
62574;SDS011;76945;45.630;11.704;2024-03-17T03:58:26;71.78;;;44.85;;
62574;SDS011;76945;45.630;11.704;2024-03-17T04:00:52;71.43;;;43.63;;
62574;SDS011;76945;45.630;11.704;2024-03-17T04:03:18;66.15;;;42.80;;
62574;SDS011;76945;45.630;11.704;2024-03-17T04:05:44;65.78;;;43.47;;
62574;SDS011;76945;45.630;11.704;2024-03-17T04:08:09;58.88;;;38.78;;
62574;SDS011;76945;45.630;11.704;2024-03-17T04:10:35;62.75;;;40.75;;
62574;SDS011;76945;45.630;11.704;2024-03-17T04:13:01;59.28;;;40.85;;
62574;SDS011;76945;45.630;11.704;2024-03-17T04:15:27;60.20;;;40.25;;
62574;SDS011;76945;45.630;11.704;2024-03-17T04:17:53;63.83;;;40.47;;
62574;SDS011;76945;45.630;11.704;2024-03-17T04:20:19;62.53;;;40.22;;
62574;SDS011;76945;45.630;11.704;2024-03-17T04:22:45;66.93;;;39.95;;
62574;SDS011;76945;45.630;11.704;2024-03-17T04:25:11;70.05;;;42.58;;
62574;SDS011;76945;45.630;11.704;2024-03-17T04:27:38;63.10;;;39.47;;
62574;SDS011;76945;45.630;11.704;2024-03-17T04:30:05;63.45;;;40.38;;
62574;SDS011;76945;45.630;11.704;2024-03-17T04:32:32;62.40;;;39.40;;
62574;SDS011;76945;45.630;11.704;2024-03-17T04:34:58;64.88;;;39.58;;
62574;SDS011;76945;45.630;11.704;2024-03-17T04:37:24;63.00;;;39.33;;
62574;SDS011;76945;45.630;11.704;2024-03-17T04:39:49;58.88;;;35.72;;
62574;SDS011;76945;45.630;11.704;2024-03-17T04:42:16;60.97;;;36.78;;
62574;SDS011;76945;45.630;11.704;2024-03-17T04:44:45;63.90;;;39.17;;
62574;SDS011;76945;45.630;11.704;2024-03-17T04:47:11;53.90;;;33.58;;
62574;SDS011;76945;45.630;11.704;2024-03-17T04:49:41;65.13;;;39.05;;
62574;SDS011;76945;45.630;11.704;2024-03-17T04:52:08;65.07;;;39.90;;
62574;SDS011;76945;45.630;11.704;2024-03-17T04:54:37;62.28;;;38.00;;
62574;SDS011;76945;45.630;11.704;2024-03-17T04:57:03;62.90;;;38.40;;
62574;SDS011;76945;45.630;11.704;2024-03-17T04:59:29;63.80;;;36.63;;
62574;SDS011;76945;45.630;11.704;2024-03-17T05:01:55;59.15;;;38.00;;
62574;SDS011;76945;45.630;11.704;2024-03-17T05:04:21;55.15;;;35.33;;
62574;SDS011;76945;45.630;11.704;2024-03-17T05:06:48;62.15;;;38.35;;
62574;SDS011;76945;45.630;11.704;2024-03-17T05:09:15;60.97;;;37.92;;
62574;SDS011;76945;45.630;11.704;2024-03-17T05:11:44;62.38;;;38.60;;
62574;SDS011;76945;45.630;11.704;2024-03-17T05:14:10;65.22;;;39.83;;
62574;SDS011;76945;45.630;11.704;2024-03-17T05:16:36;59.88;;;38.13;;
62574;SDS011;76945;45.630;11.704;2024-03-17T05:19:03;64.38;;;38.65;;
62574;SDS011;76945;45.630;11.704;2024-03-17T05:21:29;59.65;;;35.58;;
62574;SDS011;76945;45.630;11.704;2024-03-17T05:23:55;60.65;;;37.40;;
62574;SDS011;76945;45.630;11.704;2024-03-17T05:26:22;56.50;;;34.35;;
62574;SDS011;76945;45.630;11.704;2024-03-17T05:28:49;62.13;;;37.60;;
62574;SDS011;76945;45.630;11.704;2024-03-17T05:31:15;65.10;;;37.70;;
62574;SDS011;76945;45.630;11.704;2024-03-17T05:33:42;55.75;;;35.20;;
62574;SDS011;76945;45.630;11.704;2024-03-17T05:36:11;61.50;;;37.33;;
62574;SDS011;76945;45.630;11.704;2024-03-17T05:38:37;62.53;;;37.53;;
62574;SDS011;76945;45.630;11.704;2024-03-17T05:41:03;55.38;;;33.63;;
62574;SDS011;76945;45.630;11.704;2024-03-17T05:43:34;57.72;;;33.83;;
62574;SDS011;76945;45.630;11.704;2024-03-17T05:46:21;58.42;;;36.05;;
62574;SDS011;76945;45.630;11.704;2024-03-17T05:48:47;57.17;;;33.33;;
62574;SDS011;76945;45.630;11.704;2024-03-17T05:51:12;56.85;;;34.42;;
62574;SDS011;76945;45.630;11.704;2024-03-17T05:53:41;54.45;;;33.22;;
62574;SDS011;76945;45.630;11.704;2024-03-17T05:56:09;55.78;;;35.55;;
62574;SDS011;76945;45.630;11.704;2024-03-17T05:58:36;58.55;;;35.58;;
62574;SDS011;76945;45.630;11.704;2024-03-17T06:01:02;56.25;;;34.17;;
62574;SDS011;76945;45.630;11.704;2024-03-17T06:03:28;53.35;;;33.15;;
62574;SDS011;76945;45.630;11.704;2024-03-17T06:05:54;60.30;;;35.80;;
62574;SDS011;76945;45.630;11.704;2024-03-17T06:08:20;55.95;;;33.50;;
62574;SDS011;76945;45.630;11.704;2024-03-17T06:10:47;51.60;;;31.52;;
62574;SDS011;76945;45.630;11.704;2024-03-17T06:13:13;51.65;;;33.13;;
62574;SDS011;76945;45.630;11.704;2024-03-17T06:15:41;57.30;;;35.53;;
62574;SDS011;76945;45.630;11.704;2024-03-17T06:18:09;55.45;;;33.85;;
62574;SDS011;76945;45.630;11.704;2024-03-17T06:20:42;49.97;;;30.33;;
62574;SDS011;76945;45.630;11.704;2024-03-17T06:23:09;48.65;;;31.05;;
62574;SDS011;76945;45.630;11.704;2024-03-17T06:25:45;56.83;;;34.80;;
62574;SDS011;76945;45.630;11.704;2024-03-17T06:28:12;60.45;;;36.15;;
62574;SDS011;76945;45.630;11.704;2024-03-17T06:30:40;68.35;;;38.95;;
62574;SDS011;76945;45.630;11.704;2024-03-17T06:33:12;70.13;;;40.47;;
62574;SDS011;76945;45.630;11.704;2024-03-17T06:35:38;61.20;;;38.47;;
62574;SDS011;76945;45.630;11.704;2024-03-17T06:38:05;62.95;;;38.70;;
62574;SDS011;76945;45.630;11.704;2024-03-17T06:40:34;58.78;;;35.42;;
62574;SDS011;76945;45.630;11.704;2024-03-17T06:43:04;65.55;;;36.53;;
62574;SDS011;76945;45.630;11.704;2024-03-17T06:45:30;58.70;;;34.33;;
62574;SDS011;76945;45.630;11.704;2024-03-17T06:47:56;62.58;;;37.05;;
62574;SDS011;76945;45.630;11.704;2024-03-17T06:50:22;66.97;;;37.15;;
62574;SDS011;76945;45.630;11.704;2024-03-17T06:52:48;62.22;;;36.47;;
62574;SDS011;76945;45.630;11.704;2024-03-17T06:55:13;53.90;;;31.65;;
62574;SDS011;76945;45.630;11.704;2024-03-17T06:57:42;47.55;;;28.70;;
62574;SDS011;76945;45.630;11.704;2024-03-17T07:00:09;62.58;;;36.28;;
62574;SDS011;76945;45.630;11.704;2024-03-17T07:02:39;67.63;;;35.40;;
62574;SDS011;76945;45.630;11.704;2024-03-17T07:05:06;64.70;;;36.20;;
62574;SDS011;76945;45.630;11.704;2024-03-17T07:07:32;66.38;;;37.35;;
62574;SDS011;76945;45.630;11.704;2024-03-17T07:09:59;58.47;;;33.85;;
62574;SDS011;76945;45.630;11.704;2024-03-17T07:12:30;70.68;;;40.22;;
62574;SDS011;76945;45.630;11.704;2024-03-17T07:14:55;62.38;;;38.17;;
62574;SDS011;76945;45.630;11.704;2024-03-17T07:17:21;61.83;;;37.75;;
62574;SDS011;76945;45.630;11.704;2024-03-17T07:19:47;58.53;;;35.45;;
62574;SDS011;76945;45.630;11.704;2024-03-17T07:22:14;69.03;;;39.28;;
62574;SDS011;76945;45.630;11.704;2024-03-17T07:24:40;60.10;;;37.83;;
62574;SDS011;76945;45.630;11.704;2024-03-17T07:27:07;76.35;;;37.78;;
62574;SDS011;76945;45.630;11.704;2024-03-17T07:29:37;63.47;;;37.30;;
62574;SDS011;76945;45.630;11.704;2024-03-17T07:32:03;61.50;;;37.42;;
62574;SDS011;76945;45.630;11.704;2024-03-17T07:34:32;54.60;;;35.63;;
62574;SDS011;76945;45.630;11.704;2024-03-17T07:36:58;55.60;;;33.75;;
62574;SDS011;76945;45.630;11.704;2024-03-17T07:39:31;62.97;;;37.38;;
62574;SDS011;76945;45.630;11.704;2024-03-17T07:41:59;54.88;;;35.63;;
62574;SDS011;76945;45.630;11.704;2024-03-17T07:44:26;57.75;;;35.28;;
62574;SDS011;76945;45.630;11.704;2024-03-17T07:47:01;53.55;;;34.85;;
62574;SDS011;76945;45.630;11.704;2024-03-17T07:49:30;62.47;;;38.05;;
62574;SDS011;76945;45.630;11.704;2024-03-17T07:51:56;61.10;;;38.10;;
62574;SDS011;76945;45.630;11.704;2024-03-17T07:54:23;61.70;;;38.95;;
62574;SDS011;76945;45.630;11.704;2024-03-17T07:56:49;60.30;;;37.15;;
62574;SDS011;76945;45.630;11.704;2024-03-17T07:59:14;50.35;;;33.65;;
62574;SDS011;76945;45.630;11.704;2024-03-17T08:01:42;56.42;;;36.70;;
62574;SDS011;76945;45.630;11.704;2024-03-17T08:04:08;58.90;;;37.25;;
62574;SDS011;76945;45.630;11.704;2024-03-17T08:06:36;52.92;;;34.20;;
62574;SDS011;76945;45.630;11.704;2024-03-17T08:09:06;50.35;;;32.85;;
62574;SDS011;76945;45.630;11.704;2024-03-17T08:11:35;52.47;;;35.55;;
62574;SDS011;76945;45.630;11.704;2024-03-17T08:14:01;54.42;;;36.38;;
62574;SDS011;76945;45.630;11.704;2024-03-17T08:16:27;55.88;;;36.20;;
62574;SDS011;76945;45.630;11.704;2024-03-17T08:18:54;53.63;;;35.47;;
62574;SDS011;76945;45.630;11.704;2024-03-17T08:21:20;49.45;;;33.22;;
62574;SDS011;76945;45.630;11.704;2024-03-17T08:23:45;45.58;;;31.30;;
62574;SDS011;76945;45.630;11.704;2024-03-17T08:26:12;51.47;;;32.60;;
62574;SDS011;76945;45.630;11.704;2024-03-17T08:28:38;54.85;;;34.53;;
62574;SDS011;76945;45.630;11.704;2024-03-17T08:31:04;47.28;;;30.33;;
62574;SDS011;76945;45.630;11.704;2024-03-17T08:33:30;60.15;;;39.05;;
62574;SDS011;76945;45.630;11.704;2024-03-17T08:35:58;50.30;;;34.30;;
62574;SDS011;76945;45.630;11.704;2024-03-17T08:38:32;59.85;;;39.22;;
62574;SDS011;76945;45.630;11.704;2024-03-17T08:41:02;61.58;;;40.88;;
62574;SDS011;76945;45.630;11.704;2024-03-17T08:43:29;57.58;;;36.90;;
62574;SDS011;76945;45.630;11.704;2024-03-17T08:45:59;51.45;;;35.17;;
62574;SDS011;76945;45.630;11.704;2024-03-17T08:48:30;53.63;;;35.95;;
62574;SDS011;76945;45.630;11.704;2024-03-17T08:51:07;55.25;;;34.78;;
62574;SDS011;76945;45.630;11.704;2024-03-17T08:53:33;58.28;;;39.15;;
62574;SDS011;76945;45.630;11.704;2024-03-17T08:55:59;52.60;;;36.35;;
62574;SDS011;76945;45.630;11.704;2024-03-17T08:58:25;56.80;;;37.60;;
62574;SDS011;76945;45.630;11.704;2024-03-17T09:00:51;50.70;;;32.75;;
62574;SDS011;76945;45.630;11.704;2024-03-17T09:03:17;48.33;;;33.55;;
62574;SDS011;76945;45.630;11.704;2024-03-17T09:05:44;45.88;;;32.25;;
62574;SDS011;76945;45.630;11.704;2024-03-17T09:08:18;48.35;;;33.10;;
62574;SDS011;76945;45.630;11.704;2024-03-17T09:10:45;48.35;;;32.50;;
62574;SDS011;76945;45.630;11.704;2024-03-17T09:13:22;53.03;;;37.40;;
62574;SDS011;76945;45.630;11.704;2024-03-17T09:16:01;52.53;;;36.35;;
62574;SDS011;76945;45.630;11.704;2024-03-17T09:18:27;53.25;;;35.97;;
62574;SDS011;76945;45.630;11.704;2024-03-17T09:21:00;45.03;;;31.52;;
62574;SDS011;76945;45.630;11.704;2024-03-17T09:23:28;44.75;;;31.38;;
62574;SDS011;76945;45.630;11.704;2024-03-17T09:25:58;45.85;;;30.80;;
62574;SDS011;76945;45.630;11.704;2024-03-17T09:28:24;44.92;;;31.13;;
62574;SDS011;76945;45.630;11.704;2024-03-17T09:30:50;38.97;;;27.92;;
62574;SDS011;76945;45.630;11.704;2024-03-17T09:33:17;43.55;;;30.52;;
62574;SDS011;76945;45.630;11.704;2024-03-17T09:35:44;43.45;;;29.58;;
62574;SDS011;76945;45.630;11.704;2024-03-17T09:38:18;44.50;;;30.92;;
62574;SDS011;76945;45.630;11.704;2024-03-17T09:40:47;49.30;;;33.97;;
62574;SDS011;76945;45.630;11.704;2024-03-17T09:43:16;47.53;;;31.63;;
62574;SDS011;76945;45.630;11.704;2024-03-17T09:45:41;57.47;;;37.25;;
62574;SDS011;76945;45.630;11.704;2024-03-17T09:48:07;55.65;;;38.28;;
62574;SDS011;76945;45.630;11.704;2024-03-17T09:50:39;48.70;;;34.30;;
62574;SDS011;76945;45.630;11.704;2024-03-17T09:53:05;55.83;;;38.90;;
62574;SDS011;76945;45.630;11.704;2024-03-17T09:55:31;53.85;;;37.33;;
62574;SDS011;76945;45.630;11.704;2024-03-17T09:57:57;51.25;;;34.95;;
62574;SDS011;76945;45.630;11.704;2024-03-17T10:00:22;53.47;;;37.95;;
62574;SDS011;76945;45.630;11.704;2024-03-17T10:02:48;49.05;;;34.47;;
62574;SDS011;76945;45.630;11.704;2024-03-17T10:05:21;50.47;;;34.70;;
62574;SDS011;76945;45.630;11.704;2024-03-17T10:07:48;50.22;;;35.60;;
62574;SDS011;76945;45.630;11.704;2024-03-17T10:10:15;49.70;;;34.97;;
62574;SDS011;76945;45.630;11.704;2024-03-17T10:12:44;46.38;;;32.58;;
62574;SDS011;76945;45.630;11.704;2024-03-17T10:15:16;47.30;;;33.42;;
62574;SDS011;76945;45.630;11.704;2024-03-17T10:17:41;59.10;;;37.88;;
62574;SDS011;76945;45.630;11.704;2024-03-17T10:20:25;45.60;;;33.35;;
62574;SDS011;76945;45.630;11.704;2024-03-17T10:22:58;46.08;;;34.13;;
62574;SDS011;76945;45.630;11.704;2024-03-17T10:25:29;48.83;;;33.95;;
62574;SDS011;76945;45.630;11.704;2024-03-17T10:27:58;51.70;;;37.28;;
62574;SDS011;76945;45.630;11.704;2024-03-17T10:30:25;52.28;;;37.33;;
62574;SDS011;76945;45.630;11.704;2024-03-17T10:32:53;50.00;;;34.03;;
62574;SDS011;76945;45.630;11.704;2024-03-17T10:37:55;51.05;;;37.30;;
62574;SDS011;76945;45.630;11.704;2024-03-17T10:40:23;57.95;;;38.20;;
62574;SDS011;76945;45.630;11.704;2024-03-17T10:42:49;55.72;;;40.40;;
62574;SDS011;76945;45.630;11.704;2024-03-17T10:45:15;55.75;;;39.00;;
62574;SDS011;76945;45.630;11.704;2024-03-17T10:47:42;49.78;;;36.67;;
62574;SDS011;76945;45.630;11.704;2024-03-17T10:50:14;57.60;;;40.95;;
62574;SDS011;76945;45.630;11.704;2024-03-17T10:52:46;54.67;;;37.78;;
62574;SDS011;76945;45.630;11.704;2024-03-17T10:55:25;59.47;;;39.20;;
62574;SDS011;76945;45.630;11.704;2024-03-17T10:57:52;48.58;;;34.20;;
62574;SDS011;76945;45.630;11.704;2024-03-17T11:00:19;48.72;;;34.95;;
62574;SDS011;76945;45.630;11.704;2024-03-17T11:02:49;45.70;;;31.75;;
62574;SDS011;76945;45.630;11.704;2024-03-17T11:05:21;54.75;;;38.22;;
62574;SDS011;76945;45.630;11.704;2024-03-17T11:07:54;53.60;;;36.88;;
62574;SDS011;76945;45.630;11.704;2024-03-17T11:10:29;51.80;;;36.78;;
62574;SDS011;76945;45.630;11.704;2024-03-17T11:12:58;48.90;;;35.08;;
62574;SDS011;76945;45.630;11.704;2024-03-17T11:20:33;49.58;;;35.30;;
62574;SDS011;76945;45.630;11.704;2024-03-17T11:23:00;52.33;;;37.70;;
62574;SDS011;76945;45.630;11.704;2024-03-17T11:28:13;49.83;;;34.80;;
62574;SDS011;76945;45.630;11.704;2024-03-17T11:31:04;49.85;;;34.92;;
62574;SDS011;76945;45.630;11.704;2024-03-17T11:49:27;55.08;;;37.50;;
62574;SDS011;76945;45.630;11.704;2024-03-17T11:51:58;50.13;;;36.33;;
62574;SDS011;76945;45.630;11.704;2024-03-17T11:54:25;51.65;;;35.65;;
62574;SDS011;76945;45.630;11.704;2024-03-17T11:56:56;48.47;;;34.35;;
62574;SDS011;76945;45.630;11.704;2024-03-17T11:59:27;44.08;;;31.08;;
62574;SDS011;76945;45.630;11.704;2024-03-17T12:01:52;50.22;;;34.58;;
62574;SDS011;76945;45.630;11.704;2024-03-17T12:04:19;42.70;;;31.85;;
62574;SDS011;76945;45.630;11.704;2024-03-17T12:06:46;40.28;;;30.92;;
62574;SDS011;76945;45.630;11.704;2024-03-17T12:09:23;47.05;;;32.70;;
62574;SDS011;76945;45.630;11.704;2024-03-17T12:12:03;50.00;;;34.63;;
62574;SDS011;76945;45.630;11.704;2024-03-17T12:14:32;45.65;;;32.92;;
62574;SDS011;76945;45.630;11.704;2024-03-17T12:19:28;39.22;;;29.42;;
62574;SDS011;76945;45.630;11.704;2024-03-17T12:21:58;43.97;;;32.45;;
62574;SDS011;76945;45.630;11.704;2024-03-17T12:24:27;43.78;;;32.05;;
62574;SDS011;76945;45.630;11.704;2024-03-17T12:27:01;34.50;;;26.00;;
62574;SDS011;76945;45.630;11.704;2024-03-17T12:29:34;34.58;;;27.30;;
62574;SDS011;76945;45.630;11.704;2024-03-17T12:34:28;39.85;;;30.25;;
62574;SDS011;76945;45.630;11.704;2024-03-17T12:36:56;38.80;;;28.35;;
62574;SDS011;76945;45.630;11.704;2024-03-17T12:39:23;33.28;;;24.95;;
62574;SDS011;76945;45.630;11.704;2024-03-17T12:42:13;39.20;;;29.35;;
62574;SDS011;76945;45.630;11.704;2024-03-17T12:44:40;40.17;;;30.65;;
62574;SDS011;76945;45.630;11.704;2024-03-17T12:47:16;38.38;;;29.83;;
62574;SDS011;76945;45.630;11.704;2024-03-17T12:49:46;36.63;;;29.05;;
62574;SDS011;76945;45.630;11.704;2024-03-17T12:52:35;41.65;;;29.50;;
62574;SDS011;76945;45.630;11.704;2024-03-17T12:55:02;40.28;;;31.00;;
62574;SDS011;76945;45.630;11.704;2024-03-17T13:00:45;41.65;;;30.02;;
62574;SDS011;76945;45.630;11.704;2024-03-17T13:03:21;40.63;;;29.98;;
62574;SDS011;76945;45.630;11.704;2024-03-17T13:05:54;38.75;;;29.90;;
62574;SDS011;76945;45.630;11.704;2024-03-17T13:08:19;38.03;;;29.75;;
62574;SDS011;76945;45.630;11.704;2024-03-17T13:10:46;37.22;;;28.92;;
62574;SDS011;76945;45.630;11.704;2024-03-17T13:13:12;40.33;;;28.77;;
62574;SDS011;76945;45.630;11.704;2024-03-17T13:15:40;37.10;;;28.17;;
62574;SDS011;76945;45.630;11.704;2024-03-17T13:18:07;41.55;;;31.13;;
62574;SDS011;76945;45.630;11.704;2024-03-17T13:20:33;37.10;;;28.67;;
62574;SDS011;76945;45.630;11.704;2024-03-17T13:22:59;38.97;;;29.77;;
62574;SDS011;76945;45.630;11.704;2024-03-17T13:25:27;37.95;;;29.88;;
62574;SDS011;76945;45.630;11.704;2024-03-17T13:28:02;38.42;;;29.58;;
62574;SDS011;76945;45.630;11.704;2024-03-17T13:30:28;38.63;;;29.33;;
62574;SDS011;76945;45.630;11.704;2024-03-17T13:32:55;39.88;;;30.35;;
62574;SDS011;76945;45.630;11.704;2024-03-17T13:35:25;36.78;;;27.88;;
62574;SDS011;76945;45.630;11.704;2024-03-17T13:37:52;35.72;;;26.70;;
62574;SDS011;76945;45.630;11.704;2024-03-17T13:40:23;35.28;;;27.65;;
62574;SDS011;76945;45.630;11.704;2024-03-17T13:42:49;35.00;;;27.48;;
62574;SDS011;76945;45.630;11.704;2024-03-17T13:45:16;37.20;;;28.70;;
62574;SDS011;76945;45.630;11.704;2024-03-17T13:47:56;35.88;;;27.65;;
62574;SDS011;76945;45.630;11.704;2024-03-17T13:50:24;36.80;;;27.58;;
62574;SDS011;76945;45.630;11.704;2024-03-17T13:52:50;31.52;;;24.05;;
62574;SDS011;76945;45.630;11.704;2024-03-17T13:55:17;36.22;;;27.13;;
62574;SDS011;76945;45.630;11.704;2024-03-17T13:57:46;38.33;;;27.95;;
62574;SDS011;76945;45.630;11.704;2024-03-17T14:00:14;37.22;;;26.33;;
62574;SDS011;76945;45.630;11.704;2024-03-17T14:02:43;49.35;;;31.80;;
62574;SDS011;76945;45.630;11.704;2024-03-17T14:05:16;52.28;;;33.95;;
62574;SDS011;76945;45.630;11.704;2024-03-17T14:07:43;39.20;;;27.08;;
62574;SDS011;76945;45.630;11.704;2024-03-17T14:10:10;40.40;;;29.70;;
62574;SDS011;76945;45.630;11.704;2024-03-17T14:12:37;35.47;;;27.15;;
62574;SDS011;76945;45.630;11.704;2024-03-17T14:15:04;31.05;;;24.58;;
62574;SDS011;76945;45.630;11.704;2024-03-17T14:17:30;34.10;;;24.98;;
62574;SDS011;76945;45.630;11.704;2024-03-17T14:19:56;28.63;;;21.83;;
62574;SDS011;76945;45.630;11.704;2024-03-17T14:22:22;33.40;;;25.80;;
62574;SDS011;76945;45.630;11.704;2024-03-17T14:24:47;32.72;;;25.77;;
62574;SDS011;76945;45.630;11.704;2024-03-17T14:27:14;34.20;;;25.30;;
62574;SDS011;76945;45.630;11.704;2024-03-17T14:29:41;28.83;;;21.48;;
62574;SDS011;76945;45.630;11.704;2024-03-17T14:32:07;34.83;;;27.25;;
62574;SDS011;76945;45.630;11.704;2024-03-17T14:34:32;40.00;;;29.10;;
62574;SDS011;76945;45.630;11.704;2024-03-17T14:37:01;37.38;;;27.50;;
62574;SDS011;76945;45.630;11.704;2024-03-17T14:39:27;42.25;;;30.27;;
62574;SDS011;76945;45.630;11.704;2024-03-17T14:41:54;38.05;;;27.13;;
62574;SDS011;76945;45.630;11.704;2024-03-17T14:44:20;42.90;;;31.83;;
62574;SDS011;76945;45.630;11.704;2024-03-17T14:46:46;39.75;;;28.13;;
62574;SDS011;76945;45.630;11.704;2024-03-17T14:49:12;39.42;;;28.85;;